Time;durP1;ratioP1;P1;durP2;ratioP2;P2;SDS_P1;SDS_P2;PMS_P1;PMS_P2;Temp;Humidity;BMP_temperature;BMP_pressure;BME280_temperature;BME280_humidity;BME280_pressure;Samples;Min_cycle;Max_cycle;Signal;HPM_P1;HPM_P2
2021/03/24 00:01:22;;;;;;;73.70;45.58;;;6.10;81.20;;;;;;5004365;28;20041;-76
2021/03/24 00:03:48;;;;;;;69.50;45.03;;;6.00;81.10;;;;;;5001885;28;20525;-73
2021/03/24 00:06:14;;;;;;;67.00;44.08;;;6.00;81.10;;;;;;5001531;28;20034;-75
2021/03/24 00:08:40;;;;;;;67.25;45.38;;;6.00;81.10;;;;;;5005139;28;20037;-75
2021/03/24 00:11:07;;;;;;;69.45;46.00;;;5.90;81.20;;;;;;4998159;28;20246;-73
2021/03/24 00:13:33;;;;;;;70.97;46.33;;;5.90;81.30;;;;;;5001838;28;21048;-72
2021/03/24 00:16:00;;;;;;;72.22;47.22;;;5.90;81.50;;;;;;5002194;28;20037;-76
2021/03/24 00:18:26;;;;;;;78.28;49.47;;;5.90;81.60;;;;;;5000098;28;20049;-74
2021/03/24 00:20:52;;;;;;;75.00;47.22;;;5.80;81.80;;;;;;4999521;28;20539;-76
2021/03/24 00:23:18;;;;;;;77.72;47.17;;;5.80;81.80;;;;;;5003445;28;20076;-73
2021/03/24 00:25:44;;;;;;;72.70;46.60;;;5.80;82.00;;;;;;4995156;28;20067;-73
2021/03/24 00:28:11;;;;;;;74.40;49.08;;;5.80;82.00;;;;;;4997878;28;20033;-75
2021/03/24 00:30:40;;;;;;;76.28;48.60;;;5.80;82.00;;;;;;5003523;28;20057;-74
2021/03/24 00:33:06;;;;;;;76.88;47.03;;;5.80;82.00;;;;;;4998757;28;20030;-75
2021/03/24 00:35:32;;;;;;;75.38;46.92;;;5.70;82.10;;;;;;4996706;28;20033;-74
2021/03/24 00:37:59;;;;;;;75.45;46.38;;;5.80;82.20;;;;;;4998688;28;20492;-76
2021/03/24 00:40:33;;;;;;;80.35;48.83;;;5.70;82.10;;;;;;4996444;28;20034;-77
2021/03/24 00:42:58;;;;;;;79.13;49.08;;;5.70;82.10;;;;;;4996716;28;20145;-74
2021/03/24 00:45:24;;;;;;;76.65;49.63;;;5.70;82.20;;;;;;5003607;28;20657;-74
2021/03/24 00:47:50;;;;;;;78.13;47.95;;;5.70;82.10;;;;;;5002842;28;20025;-75
2021/03/24 00:50:21;;;;;;;74.22;47.17;;;5.60;82.10;;;;;;5001626;28;20048;-73
2021/03/24 00:52:47;;;;;;;78.78;48.45;;;5.70;82.20;;;;;;4997762;28;20026;-77
2021/03/24 00:55:14;;;;;;;76.57;46.45;;;5.60;82.30;;;;;;4995742;28;20176;-73
2021/03/24 00:57:40;;;;;;;76.35;47.83;;;5.60;82.40;;;;;;4997803;28;20478;-73
2021/03/24 01:00:14;;;;;;;78.57;47.50;;;5.60;82.40;;;;;;4996427;28;20035;-73
2021/03/24 01:02:40;;;;;;;81.27;49.67;;;5.60;82.50;;;;;;5000413;28;20093;-73
2021/03/24 01:05:08;;;;;;;76.88;46.83;;;5.50;82.60;;;;;;4996160;28;20453;-74
2021/03/24 01:07:33;;;;;;;84.93;50.95;;;5.50;82.60;;;;;;4999728;28;20038;-73
2021/03/24 01:10:00;;;;;;;80.75;48.03;;;5.50;82.70;;;;;;5001860;28;20033;-74
2021/03/24 01:12:25;;;;;;;85.10;50.38;;;5.50;82.70;;;;;;4997171;28;20037;-74
2021/03/24 01:14:51;;;;;;;82.40;51.08;;;5.40;82.70;;;;;;4999705;28;20030;-73
2021/03/24 01:17:17;;;;;;;82.75;51.30;;;5.40;82.70;;;;;;5001075;28;20125;-73
2021/03/24 01:19:43;;;;;;;84.15;51.88;;;5.40;82.70;;;;;;4997661;28;20129;-74
2021/03/24 01:22:09;;;;;;;85.43;51.50;;;5.40;82.70;;;;;;4999125;28;20053;-74
2021/03/24 01:24:34;;;;;;;79.40;50.17;;;5.30;82.90;;;;;;5011019;28;20077;-76
2021/03/24 01:27:00;;;;;;;81.53;51.63;;;5.30;83.00;;;;;;5002769;28;20484;-76
2021/03/24 01:29:26;;;;;;;84.90;51.38;;;5.30;83.00;;;;;;4994263;28;20065;-78
2021/03/24 01:31:51;;;;;;;82.93;51.03;;;5.30;83.00;;;;;;5004497;28;20077;-73
2021/03/24 01:34:17;;;;;;;84.43;51.83;;;5.30;83.10;;;;;;4996316;28;20036;-72
2021/03/24 01:36:43;;;;;;;84.55;50.55;;;5.30;83.10;;;;;;5002222;28;20036;-75
2021/03/24 01:39:08;;;;;;;96.45;54.72;;;5.30;83.20;;;;;;5002927;28;20033;-73
2021/03/24 01:41:35;;;;;;;82.32;52.28;;;5.30;83.20;;;;;;5013337;28;20038;-75
2021/03/24 01:44:00;;;;;;;88.85;52.97;;;5.30;83.30;;;;;;5004400;28;20030;-74
2021/03/24 01:46:39;;;;;;;88.65;54.28;;;5.30;83.30;;;;;;5004575;28;20048;-73
2021/03/24 01:49:12;;;;;;;92.82;56.35;;;5.30;83.30;;;;;;5001722;28;20434;-74
2021/03/24 01:51:55;;;;;;;88.70;53.83;;;5.30;83.50;;;;;;5008725;28;20125;-75
2021/03/24 01:54:29;;;;;;;93.00;55.58;;;5.20;83.50;;;;;;5001604;28;20041;-76
2021/03/24 01:57:09;;;;;;;103.47;55.80;;;5.30;83.50;;;;;;5002635;28;20034;-73
2021/03/24 01:59:36;;;;;;;94.15;57.17;;;5.30;83.60;;;;;;4995487;28;20366;-73
2021/03/24 02:02:06;;;;;;;93.72;55.88;;;5.30;83.60;;;;;;5001552;28;20046;-75
2021/03/24 02:04:31;;;;;;;98.43;57.03;;;5.30;83.70;;;;;;5001063;28;20030;-74
2021/03/24 02:07:06;;;;;;;94.25;56.40;;;5.30;83.70;;;;;;5006132;28;20022;-73
2021/03/24 02:09:57;;;;;;;95.63;56.10;;;5.30;83.70;;;;;;5000189;28;20423;-75
2021/03/24 02:12:44;;;;;;;99.25;58.00;;;5.30;84.00;;;;;;5004271;28;20045;-78
2021/03/24 02:15:32;;;;;;;103.30;62.28;;;5.30;84.30;;;;;;4996450;28;20046;-75
2021/03/24 02:18:00;;;;;;;95.13;58.13;;;5.40;84.10;;;;;;5003298;28;20124;-73
2021/03/24 02:20:42;;;;;;;98.72;59.38;;;5.40;84.00;;;;;;5002399;28;20041;-77
2021/03/24 02:23:35;;;;;;;96.80;55.75;;;5.40;83.90;;;;;;4999169;28;20028;-73
2021/03/24 02:26:19;;;;;;;96.43;57.13;;;5.30;83.70;;;;;;5000036;28;20099;-74
2021/03/24 02:28:47;;;;;;;91.32;57.00;;;5.30;83.60;;;;;;5008325;28;20464;-74
2021/03/24 02:31:14;;;;;;;98.00;58.03;;;5.20;83.60;;;;;;5002229;28;20042;-75
2021/03/24 02:33:43;;;;;;;99.68;58.75;;;5.20;83.70;;;;;;5002593;28;20029;-73
2021/03/24 02:36:14;;;;;;;99.07;57.67;;;5.20;83.90;;;;;;4999664;28;20525;-76
2021/03/24 02:38:42;;;;;;;95.43;57.45;;;5.20;83.90;;;;;;5005565;28;20112;-74
2021/03/24 02:41:08;;;;;;;95.47;57.78;;;5.20;83.90;;;;;;5001407;28;20037;-73
2021/03/24 02:43:35;;;;;;;99.45;58.13;;;5.20;83.70;;;;;;5002738;28;20033;-73
2021/03/24 02:46:03;;;;;;;101.55;56.97;;;5.10;83.70;;;;;;5002025;28;20470;-74
2021/03/24 02:48:35;;;;;;;102.30;58.10;;;5.10;83.70;;;;;;5001814;28;20079;-74
2021/03/24 02:51:05;;;;;;;95.70;56.60;;;5.10;83.70;;;;;;5001263;28;20035;-75
2021/03/24 02:53:32;;;;;;;96.63;58.13;;;5.10;83.80;;;;;;5002546;28;20029;-74
2021/03/24 02:56:03;;;;;;;105.25;60.25;;;5.10;83.90;;;;;;5001736;28;20054;-73
2021/03/24 02:58:29;;;;;;;99.40;59.60;;;5.10;83.90;;;;;;5001251;28;20036;-76
2021/03/24 03:00:56;;;;;;;98.45;57.22;;;5.10;83.80;;;;;;5000169;28;20416;-74
2021/03/24 03:03:29;;;;;;;96.18;57.70;;;5.00;83.80;;;;;;4994953;28;20045;-75
2021/03/24 03:05:57;;;;;;;99.43;60.17;;;5.00;83.80;;;;;;5001434;28;20050;-74
2021/03/24 03:08:35;;;;;;;102.00;58.65;;;5.00;84.10;;;;;;5002551;28;20440;-74
2021/03/24 03:11:14;;;;;;;101.55;60.85;;;5.10;84.00;;;;;;4998740;28;20129;-74
2021/03/24 03:14:05;;;;;;;102.38;58.92;;;5.00;84.00;;;;;;4996550;28;20037;-75
2021/03/24 03:17:05;;;;;;;98.05;56.88;;;5.00;84.00;;;;;;4995376;28;20034;-79
2021/03/24 03:19:35;;;;;;;103.75;57.90;;;5.00;84.00;;;;;;4997371;28;20033;-75
2021/03/24 03:22:07;;;;;;;99.25;59.05;;;5.00;83.90;;;;;;4999210;28;20054;-74
2021/03/24 03:24:38;;;;;;;101.22;59.38;;;4.90;83.90;;;;;;4996319;28;20125;-74
2021/03/24 03:27:07;;;;;;;97.07;57.67;;;5.00;84.00;;;;;;4998452;28;20481;-73
2021/03/24 03:29:33;;;;;;;96.65;57.67;;;4.90;83.90;;;;;;4997110;28;20457;-74
2021/03/24 03:32:02;;;;;;;102.53;60.80;;;4.90;83.80;;;;;;5002554;28;20045;-74
2021/03/24 03:34:28;;;;;;;95.93;58.92;;;4.90;83.80;;;;;;5001375;28;20358;-77
2021/03/24 03:36:56;;;;;;;95.88;56.33;;;4.90;83.80;;;;;;5000045;28;20034;-74
2021/03/24 03:39:26;;;;;;;96.35;58.42;;;4.80;83.90;;;;;;5000291;28;20049;-74
2021/03/24 03:41:54;;;;;;;95.75;58.28;;;4.80;83.90;;;;;;4998979;28;20045;-75
2021/03/24 03:44:20;;;;;;;103.13;56.65;;;4.70;83.90;;;;;;5008275;28;20084;-74
2021/03/24 03:46:50;;;;;;;99.38;58.72;;;4.70;83.90;;;;;;4998055;28;20607;-74
2021/03/24 03:49:17;;;;;;;105.00;59.65;;;4.70;84.20;;;;;;5001953;28;20029;-74
2021/03/24 03:52:03;;;;;;;95.45;55.88;;;4.80;84.10;;;;;;5002848;28;20053;-76
2021/03/24 03:54:39;;;;;;;104.05;58.55;;;4.70;84.10;;;;;;4995582;28;20042;-74
2021/03/24 03:57:14;;;;;;;108.95;60.65;;;4.70;84.00;;;;;;5000872;28;20080;-73
2021/03/24 03:59:45;;;;;;;;;;;4.70;84.00;;;;;;5003291;28;20472;-74
2021/03/24 04:02:16;;;;;;;96.97;53.72;;;4.70;84.00;;;;;;4995267;28;19913;-73
2021/03/24 04:04:55;;;;;;;94.93;57.40;;;4.70;84.00;;;;;;4999701;28;20103;-73
2021/03/24 04:07:26;;;;;;;102.03;56.55;;;4.70;83.90;;;;;;4996704;28;20048;-74
2021/03/24 04:09:55;;;;;;;97.82;57.05;;;4.70;84.10;;;;;;4998676;28;20372;-74
2021/03/24 04:12:23;;;;;;;97.82;55.40;;;4.60;84.10;;;;;;4997972;28;20107;-76
2021/03/24 04:14:52;;;;;;;98.47;56.47;;;4.60;84.00;;;;;;5006218;28;20112;-74
2021/03/24 04:17:25;;;;;;;100.03;57.33;;;4.60;84.10;;;;;;4997097;28;20060;-74
2021/03/24 04:19:53;;;;;;;99.10;57.33;;;4.60;83.90;;;;;;5003701;28;20061;-74
2021/03/24 04:22:22;;;;;;;97.03;56.28;;;4.60;83.80;;;;;;5000174;28;20033;-74
2021/03/24 04:24:52;;;;;;;100.50;56.85;;;4.60;83.90;;;;;;5002158;28;20030;-73
2021/03/24 04:27:22;;;;;;;97.03;57.55;;;4.60;83.90;;;;;;4996726;28;20144;-74
2021/03/24 04:30:01;;;;;;;95.78;54.83;;;4.60;84.00;;;;;;5013049;28;20484;-73
2021/03/24 04:32:27;;;;;;;92.43;53.38;;;4.50;84.00;;;;;;5001875;28;20050;-73
2021/03/24 04:34:53;;;;;;;95.63;53.95;;;4.50;84.00;;;;;;5001373;28;20034;-74
2021/03/24 04:37:28;;;;;;;93.43;55.80;;;4.40;84.00;;;;;;4997705;28;20049;-73
2021/03/24 04:40:05;;;;;;;96.55;56.47;;;4.40;84.10;;;;;;4999664;28;20050;-76
2021/03/24 04:42:42;;;;;;;91.47;52.58;;;4.40;84.10;;;;;;5000641;28;20056;-73
2021/03/24 04:45:41;;;;;;;93.70;55.05;;;4.40;84.10;;;;;;4998969;28;20487;-73
2021/03/24 04:48:23;;;;;;;91.32;53.95;;;4.30;84.10;;;;;;5008318;28;20055;-76
2021/03/24 04:51:00;;;;;;;100.38;56.78;;;4.40;84.20;;;;;;5004236;28;20038;-73
2021/03/24 04:53:30;;;;;;;98.15;56.30;;;4.30;84.10;;;;;;4994341;28;20165;-76
2021/03/24 04:55:58;;;;;;;106.03;56.08;;;4.30;84.20;;;;;;4998864;28;20082;-73
2021/03/24 04:58:35;;;;;;;97.05;56.05;;;4.30;84.10;;;;;;5000525;28;20026;-73
2021/03/24 05:01:25;;;;;;;97.60;58.30;;;4.30;84.20;;;;;;4993131;28;20065;-74
2021/03/24 05:03:57;;;;;;;98.95;57.67;;;4.30;84.20;;;;;;4993363;28;20034;-75
2021/03/24 05:06:29;;;;;;;102.43;57.97;;;4.30;84.10;;;;;;4997317;28;20034;-73
2021/03/24 05:08:55;;;;;;;101.10;56.90;;;4.30;84.10;;;;;;4997892;28;20100;-75
2021/03/24 05:11:32;;;;;;;104.20;57.58;;;4.30;84.40;;;;;;5000043;28;20067;-74
2021/03/24 05:14:06;;;;;;;91.32;52.80;;;4.40;84.20;;;;;;5002934;28;20122;-73
2021/03/24 05:16:35;;;;;;;90.95;54.20;;;4.30;84.30;;;;;;5005845;28;20392;-73
2021/03/24 05:19:02;;;;;;;92.50;53.90;;;4.40;84.40;;;;;;5006703;28;20034;-74
2021/03/24 05:21:46;;;;;;;98.90;56.17;;;4.30;84.30;;;;;;5003329;28;20137;-73
2021/03/24 05:24:17;;;;;;;98.45;57.42;;;4.30;84.30;;;;;;5003781;28;20080;-73
2021/03/24 05:26:50;;;;;;;97.88;57.63;;;4.20;84.40;;;;;;5004210;28;20425;-73
2021/03/24 05:29:23;;;;;;;97.47;56.40;;;4.20;84.50;;;;;;5005606;28;20021;-74
2021/03/24 05:31:56;;;;;;;98.68;59.47;;;4.20;84.60;;;;;;5006314;28;20046;-72
2021/03/24 05:34:29;;;;;;;92.30;56.85;;;4.10;84.50;;;;;;4996718;28;20038;-73
2021/03/24 05:36:55;;;;;;;99.30;57.88;;;4.10;84.50;;;;;;4998022;28;20053;-73
2021/03/24 05:39:27;;;;;;;94.55;56.80;;;4.20;84.50;;;;;;4999477;28;21143;-72
2021/03/24 05:42:25;;;;;;;101.88;57.70;;;4.20;84.50;;;;;;5004415;28;20065;-73
2021/03/24 05:45:16;;;;;;;105.63;57.85;;;4.10;84.50;;;;;;4999258;28;20358;-72
2021/03/24 05:47:58;;;;;;;97.10;57.40;;;4.10;84.60;;;;;;4999882;28;20366;-74
2021/03/24 05:50:45;;;;;;;97.63;55.45;;;4.10;84.60;;;;;;4998200;28;20117;-74
2021/03/24 05:53:23;;;;;;;102.85;57.13;;;4.10;84.60;;;;;;5013975;28;20034;-75
2021/03/24 05:56:15;;;;;;;99.88;57.28;;;4.20;84.60;;;;;;5003087;28;20168;-73
2021/03/24 05:59:10;;;;;;;98.60;55.17;;;4.20;84.80;;;;;;4999704;28;20049;-74
2021/03/24 06:02:13;;;;;;;93.72;53.95;;;4.30;84.90;;;;;;5001107;28;20053;-74
2021/03/24 06:04:51;;;;;;;96.25;56.47;;;4.30;84.70;;;;;;4986309;28;20080;-74
2021/03/24 06:07:39;;;;;;;100.20;55.90;;;4.40;84.70;;;;;;4995785;28;20368;-73
2021/03/24 06:10:07;;;;;;;105.90;57.40;;;4.40;84.70;;;;;;4997241;28;20173;-74
2021/03/24 06:13:13;;;;;;;106.60;56.97;;;4.50;84.60;;;;;;5007667;28;20469;-73
2021/03/24 06:16:16;;;;;;;110.07;58.20;;;4.50;84.50;;;;;;4977246;28;20474;-74
2021/03/24 06:19:03;;;;;;;105.82;58.15;;;4.60;84.60;;;;;;5001631;28;20064;-73
2021/03/24 06:21:59;;;;;;;95.88;55.58;;;4.60;84.40;;;;;;4998012;28;20581;-72
2021/03/24 06:24:42;;;;;;;96.55;55.80;;;4.70;84.10;;;;;;4998795;28;20056;-73
2021/03/24 06:27:49;;;;;;;96.97;57.38;;;4.80;83.80;;;;;;5002963;28;20133;-73
2021/03/24 06:30:39;;;;;;;105.80;56.60;;;4.90;83.70;;;;;;4959231;28;20035;-74
2021/03/24 06:33:38;;;;;;;98.93;55.45;;;5.00;83.80;;;;;;4963525;28;20521;-73
2021/03/24 06:36:21;;;;;;;97.32;56.17;;;5.10;83.60;;;;;;4996286;28;20539;-69
2021/03/24 06:38:59;;;;;;;95.35;54.17;;;5.10;83.30;;;;;;4998365;28;20054;-69
2021/03/24 06:41:58;;;;;;;94.13;54.25;;;5.30;83.00;;;;;;5003609;28;20132;-70
2021/03/24 06:44:29;;;;;;;87.57;50.80;;;5.80;82.50;;;;;;4992350;28;20054;-71
2021/03/24 06:47:06;;;;;;;87.53;51.15;;;6.60;79.80;;;;;;4994350;28;20037;-71
2021/03/24 06:49:56;;;;;;;80.85;50.17;;;7.10;77.30;;;;;;4996489;28;20076;-70
2021/03/24 06:52:49;;;;;;;82.32;48.65;;;7.70;74.90;;;;;;5000944;28;20169;-70
2021/03/24 06:55:27;;;;;;;79.70;48.17;;;8.00;73.40;;;;;;4999879;28;20034;-69
2021/03/24 06:58:26;;;;;;;86.35;48.30;;;7.90;73.30;;;;;;4999844;28;20042;-70
2021/03/24 07:00:59;;;;;;;86.10;50.17;;;7.60;74.10;;;;;;5011482;28;20074;-70
2021/03/24 07:04:03;;;;;;;84.47;51.40;;;7.40;75.20;;;;;;4995294;28;20038;-72
2021/03/24 07:06:44;;;;;;;84.38;50.10;;;7.10;76.40;;;;;;5003910;28;20038;-70
2021/03/24 07:09:35;;;;;;;91.30;51.55;;;7.00;77.10;;;;;;4995817;28;20105;-70
2021/03/24 07:12:22;;;;;;;87.90;49.97;;;6.80;77.60;;;;;;5003937;28;20464;-71
2021/03/24 07:14:56;;;;;;;85.22;49.78;;;6.80;78.20;;;;;;5000823;28;20049;-69
2021/03/24 07:17:36;;;;;;;81.72;49.47;;;6.80;78.50;;;;;;4997354;28;20056;-70
2021/03/24 07:20:38;;;;;;;89.40;49.78;;;6.80;78.50;;;;;;4994483;28;20054;-74
2021/03/24 07:23:43;;;;;;;87.63;50.25;;;6.90;78.60;;;;;;4998832;28;20026;-70
2021/03/24 07:26:41;;;;;;;93.63;50.97;;;7.00;78.40;;;;;;4999425;28;20044;-70
2021/03/24 07:29:24;;;;;;;88.63;50.22;;;7.10;77.60;;;;;;5000483;28;20026;-71
2021/03/24 07:32:04;;;;;;;82.47;48.70;;;7.10;78.10;;;;;;5018394;28;20041;-70
2021/03/24 07:34:33;;;;;;;83.38;47.60;;;7.20;78.00;;;;;;4998622;28;20041;-71
2021/03/24 07:37:25;;;;;;;82.63;47.35;;;7.30;77.40;;;;;;5003403;28;20037;-70
2021/03/24 07:40:10;;;;;;;83.50;49.90;;;7.40;77.70;;;;;;5001701;28;20184;-69
2021/03/24 07:42:48;;;;;;;80.30;47.33;;;7.50;77.10;;;;;;4995235;28;20049;-71
2021/03/24 07:45:39;;;;;;;81.70;47.20;;;7.70;76.90;;;;;;4997774;28;20038;-72
2021/03/24 07:48:36;;;;;;;79.88;45.90;;;7.80;76.50;;;;;;5001440;28;20473;-70
2021/03/24 07:51:37;;;;;;;74.90;46.50;;;7.90;76.00;;;;;;5000992;28;20040;-71
2021/03/24 07:54:21;;;;;;;83.93;47.53;;;8.10;75.50;;;;;;5002065;28;20531;-70
2021/03/24 07:57:01;;;;;;;83.35;45.88;;;8.30;74.80;;;;;;4999599;28;20029;-74
2021/03/24 07:59:43;;;;;;;76.70;45.40;;;8.50;74.80;;;;;;4996164;28;20584;-70
2021/03/24 08:02:33;;;;;;;74.57;45.45;;;8.60;74.20;;;;;;4999479;28;20042;-70
2021/03/24 08:05:07;;;;;;;73.50;44.15;;;8.90;73.80;;;;;;5004910;28;20050;-71
2021/03/24 08:08:10;;;;;;;75.17;44.83;;;9.10;72.60;;;;;;4996731;28;20030;-71
2021/03/24 08:10:54;;;;;;;68.50;41.25;;;9.30;71.70;;;;;;4995992;28;20288;-70
2021/03/24 08:13:34;;;;;;;72.20;45.20;;;9.50;71.30;;;;;;5002425;28;20038;-69
2021/03/24 08:16:20;;;;;;;67.75;43.00;;;9.60;70.70;;;;;;4998054;28;20489;-70
2021/03/24 08:18:58;;;;;;;67.28;42.13;;;9.80;70.10;;;;;;4996054;28;20045;-71
2021/03/24 08:21:58;;;;;;;69.47;42.00;;;10.00;69.50;;;;;;4997666;28;20050;-70
2021/03/24 08:24:40;;;;;;;68.93;42.92;;;10.10;69.20;;;;;;4996996;28;20045;-70
2021/03/24 08:27:38;;;;;;;66.78;40.33;;;10.20;68.90;;;;;;4992218;28;20037;-72
2021/03/24 08:30:26;;;;;;;67.60;40.78;;;10.40;67.70;;;;;;4985412;28;20030;-71
2021/03/24 08:33:22;;;;;;;66.07;41.03;;;10.50;67.50;;;;;;4997532;28;20091;-71
2021/03/24 08:36:12;;;;;;;66.97;41.60;;;10.80;68.10;;;;;;5005522;28;20045;-70
2021/03/24 08:38:53;;;;;;;69.68;43.65;;;11.00;66.70;;;;;;4993865;28;20038;-72
2021/03/24 08:41:56;;;;;;;66.45;40.63;;;11.20;66.30;;;;;;4996464;28;20049;-71
2021/03/24 08:44:44;;;;;;;59.40;39.22;;;11.30;65.10;;;;;;5002193;28;20084;-70
2021/03/24 08:47:20;;;;;;;60.50;39.15;;;11.40;65.00;;;;;;4999202;28;20038;-76
2021/03/24 08:49:53;;;;;;;61.72;38.67;;;11.40;65.10;;;;;;4999781;28;20473;-71
2021/03/24 08:52:22;;;;;;;61.10;39.25;;;11.40;65.30;;;;;;4998086;28;20039;-70
2021/03/24 08:54:58;;;;;;;60.40;37.35;;;11.50;65.10;;;;;;4994053;28;20038;-73
2021/03/24 08:57:56;;;;;;;61.85;38.55;;;11.60;64.80;;;;;;4995579;28;20065;-69
2021/03/24 09:00:44;;;;;;;56.03;37.28;;;11.60;63.50;;;;;;4998483;28;20557;-69
2021/03/24 09:03:49;;;;;;;64.00;38.65;;;11.70;64.00;;;;;;4995401;28;20370;-69
2021/03/24 09:06:47;;;;;;;59.58;37.00;;;11.60;64.10;;;;;;4996260;28;20029;-70
2021/03/24 09:09:36;;;;;;;61.15;39.20;;;12.00;64.40;;;;;;4989771;28;20381;-69
2021/03/24 09:12:21;;;;;;;63.10;39.83;;;12.10;63.20;;;;;;5013060;28;20050;-70
2021/03/24 09:14:59;;;;;;;61.78;38.50;;;12.30;62.80;;;;;;5000629;28;20049;-70
2021/03/24 09:17:54;;;;;;;56.55;37.45;;;12.60;62.60;;;;;;4998284;28;20034;-71
2021/03/24 09:20:45;;;;;;;59.95;37.40;;;12.60;62.60;;;;;;5014189;28;20089;-75
2021/03/24 09:23:38;;;;;;;65.32;39.05;;;12.80;61.00;;;;;;4997219;28;20049;-75
2021/03/24 09:26:34;;;;;;;60.05;38.13;;;12.90;61.90;;;;;;5001573;28;20034;-77
2021/03/24 09:29:25;;;;;;;60.13;36.75;;;13.20;61.70;;;;;;4997622;28;20128;-72
2021/03/24 09:31:51;;;;;;;59.80;38.00;;;13.30;60.40;;;;;;5005886;28;20033;-72
2021/03/24 09:34:35;;;;;;;57.35;38.00;;;13.20;60.10;;;;;;4997581;28;20373;-71
2021/03/24 09:37:07;;;;;;;58.55;36.97;;;13.40;59.60;;;;;;4992653;28;20100;-71
2021/03/24 09:39:41;;;;;;;56.25;37.88;;;13.50;60.10;;;;;;4991119;28;20694;-75
2021/03/24 09:42:24;;;;;;;60.70;36.85;;;13.70;59.20;;;;;;5005893;28;20034;-69
2021/03/24 09:45:05;;;;;;;56.55;35.50;;;13.70;57.80;;;;;;4988784;28;20401;-72
2021/03/24 09:47:47;;;;;;;57.33;36.13;;;13.90;58.50;;;;;;4992954;28;20037;-73
2021/03/24 09:50:20;;;;;;;55.97;36.92;;;14.00;57.70;;;;;;4990882;28;20053;-72
2021/03/24 09:52:51;;;;;;;56.75;37.20;;;14.10;57.00;;;;;;4990921;28;20088;-75
2021/03/24 09:55:24;;;;;;;57.03;37.15;;;14.10;56.60;;;;;;4992308;28;20654;-70
2021/03/24 09:58:27;;;;;;;60.25;38.38;;;14.20;57.30;;;;;;4989892;28;20029;-75
2021/03/24 10:01:11;;;;;;;58.53;36.83;;;14.30;57.00;;;;;;5007829;28;20034;-72
2021/03/24 10:03:52;;;;;;;56.65;36.47;;;14.50;56.40;;;;;;4992627;28;20223;-72
2021/03/24 10:06:36;;;;;;;58.63;37.00;;;14.60;57.20;;;;;;4991599;28;20057;-73
2021/03/24 10:09:19;;;;;;;55.10;36.20;;;14.60;56.50;;;;;;4993932;28;20529;-70
2021/03/24 10:11:50;;;;;;;52.97;35.35;;;14.70;56.30;;;;;;4993470;28;20764;-70
2021/03/24 10:14:51;;;;;;;60.42;36.08;;;14.90;54.80;;;;;;4993794;28;20034;-74
2021/03/24 10:17:26;;;;;;;55.90;35.17;;;14.70;55.20;;;;;;4996672;28;20558;-74
2021/03/24 10:20:07;;;;;;;53.65;34.97;;;14.70;55.50;;;;;;4998631;28;20046;-70
2021/03/24 10:22:41;;;;;;;56.25;35.72;;;14.80;55.60;;;;;;4992808;28;20485;-71
2021/03/24 10:25:11;;;;;;;53.45;35.50;;;14.90;55.70;;;;;;5004533;28;20170;-71
2021/03/24 10:27:45;;;;;;;55.33;34.88;;;14.90;54.80;;;;;;4997419;28;20038;-72
2021/03/24 10:30:13;;;;;;;49.60;32.40;;;15.10;54.00;;;;;;4990054;28;20022;-69
2021/03/24 10:32:50;;;;;;;49.42;32.50;;;15.10;54.30;;;;;;4997894;28;20101;-73
2021/03/24 10:35:21;;;;;;;43.78;29.13;;;15.30;54.00;;;;;;4998181;28;20612;-72
2021/03/24 10:37:59;;;;;;;48.13;32.05;;;15.10;53.30;;;;;;5001343;28;20042;-71
2021/03/24 10:40:31;;;;;;;45.30;29.50;;;15.20;53.30;;;;;;4996649;28;20031;-71
2021/03/24 10:43:15;;;;;;;51.05;31.17;;;15.30;53.00;;;;;;4999645;28;20052;-70
2021/03/24 10:45:49;;;;;;;45.50;29.63;;;15.50;52.70;;;;;;4996825;28;20034;-72
2021/03/24 10:48:18;;;;;;;45.53;29.60;;;15.60;51.90;;;;;;4998223;28;20045;-71
2021/03/24 10:51:04;;;;;;;44.88;29.52;;;15.70;51.90;;;;;;5002804;28;20466;-71
2021/03/24 10:53:33;;;;;;;48.28;29.95;;;15.90;51.90;;;;;;4998462;28;20042;-70
2021/03/24 10:56:21;;;;;;;46.22;30.23;;;16.10;51.20;;;;;;5012738;28;20049;-70
2021/03/24 10:58:59;;;;;;;50.50;31.92;;;16.10;52.00;;;;;;4999531;28;20042;-71
2021/03/24 11:01:32;;;;;;;41.63;28.92;;;16.10;51.30;;;;;;5003792;28;20070;-70
2021/03/24 11:04:25;;;;;;;43.08;28.75;;;16.20;51.00;;;;;;4996642;28;20031;-71
2021/03/24 11:07:09;;;;;;;45.22;28.42;;;16.20;51.00;;;;;;5001711;28;20034;-70
2021/03/24 11:10:18;;;;;;;49.75;31.00;;;16.40;51.00;;;;;;5012803;28;20038;-70
2021/03/24 11:12:48;;;;;;;45.58;29.25;;;16.60;50.90;;;;;;4986536;28;20053;-73
2021/03/24 11:15:42;;;;;;;44.83;28.60;;;16.50;49.80;;;;;;4999387;28;20049;-69
2021/03/24 11:18:12;;;;;;;43.97;30.88;;;16.10;50.60;;;;;;4996157;28;20034;-71
2021/03/24 11:20:50;;;;;;;44.95;29.83;;;16.30;50.70;;;;;;5020053;28;20397;-72
2021/03/24 11:23:40;;;;;;;47.45;29.15;;;16.40;49.90;;;;;;4999914;28;20178;-71
2021/03/24 11:26:53;;;;;;;41.47;27.23;;;16.50;50.40;;;;;;4999102;28;20113;-73
2021/03/24 11:29:23;;;;;;;41.88;28.35;;;16.70;48.30;;;;;;4999214;28;20417;-71
2021/03/24 11:32:21;;;;;;;41.33;26.58;;;16.60;48.30;;;;;;5002494;28;20045;-70
2021/03/24 11:34:52;;;;;;;41.45;27.58;;;16.70;48.10;;;;;;4995660;28;20034;-71
2021/03/24 11:37:42;;;;;;;42.70;26.58;;;16.70;48.70;;;;;;4995705;28;20541;-70
2021/03/24 11:40:37;;;;;;;37.67;24.70;;;16.80;48.00;;;;;;4997620;28;20031;-70
2021/03/24 11:43:07;;;;;;;39.53;23.30;;;16.70;48.20;;;;;;4994345;28;20474;-70
2021/03/24 11:45:34;;;;;;;41.05;25.90;;;16.80;48.30;;;;;;4995582;28;20069;-75
2021/03/24 11:48:16;;;;;;;38.97;24.73;;;17.00;47.80;;;;;;4993346;28;20035;-70
2021/03/24 11:51:11;;;;;;;40.58;25.42;;;17.10;47.30;;;;;;4990957;28;20053;-72
2021/03/24 11:54:04;;;;;;;35.65;24.42;;;17.10;47.20;;;;;;4985132;28;20038;-71
2021/03/24 11:56:42;;;;;;;36.20;23.20;;;17.20;47.90;;;;;;4999163;28;20034;-70
2021/03/24 11:59:26;;;;;;;33.58;21.52;;;17.20;47.50;;;;;;5010076;28;20108;-72
2021/03/24 12:02:19;;;;;;;31.58;20.73;;;17.30;46.80;;;;;;5002669;28;20138;-70
2021/03/24 12:04:54;;;;;;;32.03;20.85;;;17.60;44.80;;;;;;5005272;28;20121;-79
2021/03/24 12:07:34;;;;;;;39.10;24.60;;;17.60;44.80;;;;;;4992832;28;20033;-71
2021/03/24 12:10:03;;;;;;;35.25;22.65;;;17.60;45.80;;;;;;4993876;28;20046;-80
2021/03/24 12:12:29;;;;;;;34.70;22.20;;;17.60;44.60;;;;;;4993812;28;20099;-70
2021/03/24 12:15:04;;;;;;;30.13;19.85;;;17.70;43.80;;;;;;4996333;28;20050;-70
2021/03/24 12:17:35;;;;;;;28.17;19.52;;;17.60;43.90;;;;;;4996698;28;20042;-71
2021/03/24 12:20:19;;;;;;;30.48;19.92;;;17.60;43.70;;;;;;5003931;28;20125;-74
2021/03/24 12:22:54;;;;;;;27.23;19.27;;;17.50;43.50;;;;;;4993742;28;20052;-70
2021/03/24 12:25:26;;;;;;;28.35;20.15;;;17.60;43.40;;;;;;5009430;28;20297;-73
2021/03/24 12:27:55;;;;;;;27.98;18.38;;;17.70;43.10;;;;;;4997267;28;20117;-70
2021/03/24 12:30:37;;;;;;;35.65;21.17;;;17.80;43.50;;;;;;4994856;28;20415;-72
2021/03/24 12:33:15;;;;;;;30.38;19.40;;;17.90;42.80;;;;;;4996703;28;20034;-73
2021/03/24 12:35:43;;;;;;;32.20;21.50;;;18.00;43.10;;;;;;5000723;28;20050;-71
2021/03/24 12:38:12;;;;;;;29.10;20.38;;;18.00;42.80;;;;;;5000593;28;20068;-70
2021/03/24 12:40:55;;;;;;;30.50;21.17;;;18.10;42.30;;;;;;5000762;28;20030;-71
2021/03/24 12:43:30;;;;;;;30.58;21.10;;;18.10;43.30;;;;;;4998002;28;20062;-71
2021/03/24 12:46:25;;;;;;;35.75;21.75;;;18.00;43.20;;;;;;4997447;28;20440;-70
2021/03/24 12:48:53;;;;;;;;;;;17.80;43.10;;;;;;4982823;28;20046;-71
2021/03/24 12:51:48;;;;;;;27.85;18.15;;;18.10;42.90;;;;;;4995274;28;20297;-71
2021/03/24 12:54:14;;;;;;;;;;;18.00;41.90;;;;;;4990464;28;20022;-71
2021/03/24 12:57:02;;;;;;;30.92;18.42;;;18.10;41.40;;;;;;5002887;28;19916;-70
2021/03/24 13:00:06;;;;;;;31.95;19.20;;;18.10;42.80;;;;;;4989413;28;20030;-73
2021/03/24 13:03:00;;;;;;;32.05;21.38;;;18.10;41.60;;;;;;4961185;28;20144;-70
2021/03/24 13:05:59;;;;;;;33.90;19.80;;;18.10;41.50;;;;;;4992096;28;20045;-75
2021/03/24 13:08:43;;;;;;;29.27;20.35;;;18.20;41.90;;;;;;4991802;28;20065;-72
2021/03/24 13:11:24;;;;;;;30.63;20.17;;;18.20;42.70;;;;;;4999504;28;20063;-71
2021/03/24 13:13:59;;;;;;;30.45;20.10;;;18.30;42.20;;;;;;4995974;28;20114;-71
2021/03/24 13:17:02;;;;;;;27.85;18.92;;;18.30;42.20;;;;;;5002486;28;20359;-70
2021/03/24 13:20:06;;;;;;;28.08;19.10;;;18.40;41.30;;;;;;4991764;28;20034;-70
2021/03/24 13:22:43;;;;;;;32.67;21.02;;;18.50;40.90;;;;;;5002300;28;20124;-72
2021/03/24 13:25:37;;;;;;;29.60;20.95;;;18.20;41.80;;;;;;5006019;28;20053;-70
2021/03/24 13:28:05;;;;;;;32.30;21.80;;;18.00;42.60;;;;;;4996828;28;20041;-70
2021/03/24 13:30:44;;;;;;;30.98;21.50;;;18.10;42.20;;;;;;5008062;28;20050;-72